Terminal Aerodrome Forecast
Issued by NWS Nashville, TN

Current Version | Previous Version | Text Only | Print | Product List | Glossary Off
Versions: 1 2 3 4 5 6 7 8 9 10 11 12 13 14 15 16

612
FTUS44 KOHX 040831 AAB
TAFCSV
TAF AMD
KCSV 040831Z 0409/0506 09005KT 5SM -RA BR BKN005 OVC040
     FM041200 13005KT 4SM -RA BR OVC007
     FM041900 15006KT 2SM -RA BR OVC003
     FM050200 19003KT 1SM BR OVC003=

USA.gov is the U.S. government's official web portal to all federal, state and local government web resources and services.